Time;durP1;ratioP1;P1;durP2;ratioP2;P2;SDS_P1;SDS_P2;PMS_P1;PMS_P2;Temp;Humidity;BMP_temperature;BMP_pressure;BME280_temperature;BME280_humidity;BME280_pressure;Samples;Min_cycle;Max_cycle;Signal;HPM_P1;HPM_P2
2022/11/01 00:01:14;;;;;;;15.77;3.83;;;;;;;;;;5036110;28;20021;-60
2022/11/01 00:03:40;;;;;;;21.25;3.75;;;;;;;;;;5036237;28;20030;-60
2022/11/01 00:06:07;;;;;;;30.58;4.70;;;;;;;;;;5036123;28;20039;-59
2022/11/01 00:08:33;;;;;;;19.23;3.08;;;;;;;;;;5035683;28;20087;-60
2022/11/01 00:11:06;;;;;;;21.20;4.47;;;;;;;;;;5035686;28;20107;-60
2022/11/01 00:13:32;;;;;;;29.15;3.45;;;;;;;;;;5017979;28;20421;-60
2022/11/01 00:15:59;;;;;;;23.65;3.35;;;;;;;;;;5016255;28;20077;-60
2022/11/01 00:18:25;;;;;;;17.67;3.17;;;;;;;;;;5016106;28;20061;-60
2022/11/01 00:20:51;;;;;;;25.90;4.82;;;;;;;;;;5015937;28;20022;-60
2022/11/01 00:23:18;;;;;;;15.20;3.35;;;;;;;;;;5015557;28;20084;-59
2022/11/01 00:25:44;;;;;;;19.90;3.10;;;;;;;;;;5016036;28;20032;-60
2022/11/01 00:28:10;;;;;;;21.83;4.00;;;;;;;;;;5015856;28;20034;-60
2022/11/01 00:30:37;;;;;;;18.90;3.10;;;;;;;;;;5015953;28;20088;-60
2022/11/01 00:33:03;;;;;;;24.23;3.40;;;;;;;;;;5015737;28;20073;-60
2022/11/01 00:35:31;;;;;;;23.67;3.53;;;;;;;;;;5015720;28;20077;-60
2022/11/01 00:37:58;;;;;;;20.70;4.53;;;;;;;;;;5015637;28;20451;-60
2022/11/01 00:40:24;;;;;;;23.48;3.65;;;;;;;;;;5015416;28;20108;-60
2022/11/01 00:42:50;;;;;;;14.90;3.22;;;;;;;;;;5015809;28;20108;-60
2022/11/01 00:45:16;;;;;;;19.58;3.03;;;;;;;;;;5015592;28;20373;-60
2022/11/01 00:47:42;;;;;;;17.73;3.03;;;;;;;;;;5015510;28;20478;-59
2022/11/01 00:50:08;;;;;;;26.27;4.40;;;;;;;;;;5014981;28;20048;-60
2022/11/01 00:52:34;;;;;;;15.60;2.97;;;;;;;;;;5015322;28;20038;-60
2022/11/01 00:55:01;;;;;;;21.27;3.80;;;;;;;;;;5020902;28;20025;-60
2022/11/01 00:57:27;;;;;;;18.20;3.00;;;;;;;;;;5035078;28;20029;-60
2022/11/01 00:59:53;;;;;;;23.52;3.83;;;;;;;;;;5035021;28;20095;-60
2022/11/01 01:02:19;;;;;;;20.95;3.83;;;;;;;;;;5034844;28;20471;-60
2022/11/01 01:04:45;;;;;;;17.38;3.20;;;;;;;;;;5035046;28;20028;-60
2022/11/01 01:07:12;;;;;;;25.25;3.53;;;;;;;;;;5034672;28;20064;-60
2022/11/01 01:09:38;;;;;;;35.42;4.43;;;;;;;;;;5034616;28;20049;-60
2022/11/01 01:12:05;;;;;;;22.33;4.35;;;;;;;;;;5032816;28;20072;-60
2022/11/01 01:14:31;;;;;;;27.80;4.53;;;;;;;;;;5034668;28;20553;-60
2022/11/01 01:16:57;;;;;;;15.43;3.38;;;;;;;;;;5034663;28;20030;-60
2022/11/01 01:19:24;;;;;;;28.40;4.78;;;;;;;;;;5034728;28;20029;-60
2022/11/01 01:21:50;;;;;;;26.33;3.95;;;;;;;;;;5020695;28;20033;-60
2022/11/01 01:24:16;;;;;;;25.52;3.03;;;;;;;;;;5014829;28;20026;-60
2022/11/01 01:26:42;;;;;;;28.15;4.03;;;;;;;;;;5014952;28;20420;-59
2022/11/01 01:29:08;;;;;;;30.63;4.85;;;;;;;;;;5014881;28;20025;-60
2022/11/01 01:31:34;;;;;;;18.63;3.28;;;;;;;;;;5014619;28;20422;-60
2022/11/01 01:34:01;;;;;;;17.38;2.95;;;;;;;;;;5034240;28;20022;-60
2022/11/01 01:36:27;;;;;;;16.42;3.40;;;;;;;;;;5033996;28;20065;-59
2022/11/01 01:38:54;;;;;;;20.52;3.40;;;;;;;;;;5034311;28;20024;-60
2022/11/01 01:44:23;;;;;;;19.85;3.70;;;;;;;;;;5031013;28;20037;-60
2022/11/01 01:46:49;;;;;;;19.67;4.32;;;;;;;;;;5034324;28;20457;-60
2022/11/01 01:49:15;;;;;;;25.88;3.13;;;;;;;;;;5015506;28;20030;-60
2022/11/01 01:51:42;;;;;;;13.57;3.00;;;;;;;;;;5013546;28;20057;-60
2022/11/01 01:54:08;;;;;;;26.00;5.47;;;;;;;;;;5014248;28;20034;-60
2022/11/01 01:56:36;;;;;;;19.17;3.75;;;;;;;;;;5014171;28;20029;-60
2022/11/01 01:59:03;;;;;;;20.00;3.13;;;;;;;;;;5014303;28;20474;-60
2022/11/01 02:01:30;;;;;;;22.80;3.40;;;;;;;;;;5013043;28;20030;-60
2022/11/01 02:04:00;;;;;;;24.65;4.47;;;;;;;;;;5014260;28;20025;-60
2022/11/01 02:06:26;;;;;;;26.20;3.58;;;;;;;;;;5013898;28;20386;-60
2022/11/01 02:08:53;;;;;;;27.80;3.42;;;;;;;;;;5014075;28;20065;-60
2022/11/01 02:11:20;;;;;;;24.35;3.92;;;;;;;;;;5027218;28;20042;-60
2022/11/01 02:13:46;;;;;;;28.35;4.65;;;;;;;;;;5014220;28;20036;-60
2022/11/01 02:16:31;;;;;;;21.13;3.67;;;;;;;;;;5013791;28;20037;-59
2022/11/01 02:19:15;;;;;;;17.35;3.05;;;;;;;;;;5013931;28;20026;-60
2022/11/01 02:21:56;;;;;;;22.40;5.20;;;;;;;;;;4993950;28;20050;-60
2022/11/01 02:24:31;;;;;;;18.55;4.40;;;;;;;;;;5020911;28;20355;-60
2022/11/01 02:27:01;;;;;;;24.23;3.75;;;;;;;;;;5030611;28;20375;-60
2022/11/01 02:29:48;;;;;;;17.60;3.38;;;;;;;;;;5012264;28;20450;-60
2022/11/01 02:32:28;;;;;;;22.73;3.45;;;;;;;;;;5013803;28;20489;-60
2022/11/01 02:35:05;;;;;;;23.48;4.05;;;;;;;;;;5013119;28;20044;-60
2022/11/01 02:37:39;;;;;;;29.38;4.32;;;;;;;;;;4993778;28;20498;-60
2022/11/01 02:40:08;;;;;;;20.83;3.75;;;;;;;;;;4993974;28;20034;-60
2022/11/01 02:42:42;;;;;;;27.15;3.90;;;;;;;;;;4993922;28;20153;-60
2022/11/01 02:45:11;;;;;;;29.50;3.83;;;;;;;;;;4993811;28;20073;-60
2022/11/01 02:47:38;;;;;;;23.27;3.28;;;;;;;;;;4993347;28;20037;-59
2022/11/01 02:50:05;;;;;;;30.33;3.92;;;;;;;;;;4994062;28;20375;-60
2022/11/01 02:52:34;;;;;;;30.80;3.92;;;;;;;;;;4993777;28;20034;-60
2022/11/01 02:55:03;;;;;;;28.70;4.07;;;;;;;;;;4993714;28;20022;-60
2022/11/01 02:57:33;;;;;;;21.75;5.50;;;;;;;;;;4993547;28;20386;-60
2022/11/01 03:00:03;;;;;;;21.05;3.47;;;;;;;;;;4993729;28;20100;-60
2022/11/01 03:02:40;;;;;;;30.75;4.50;;;;;;;;;;4998883;28;20113;-60
2022/11/01 03:05:15;;;;;;;19.95;4.57;;;;;;;;;;4999583;28;20030;-60
2022/11/01 03:07:42;;;;;;;18.70;3.90;;;;;;;;;;5001206;28;20037;-60
2022/11/01 03:10:09;;;;;;;29.58;3.70;;;;;;;;;;4998049;28;20102;-60
2022/11/01 03:12:39;;;;;;;19.52;3.22;;;;;;;;;;4998848;28;20026;-60
2022/11/01 03:15:19;;;;;;;27.77;3.50;;;;;;;;;;4993188;28;20403;-60
2022/11/01 03:17:59;;;;;;;28.70;4.00;;;;;;;;;;4999484;28;20030;-60
2022/11/01 03:20:48;;;;;;;22.20;4.07;;;;;;;;;;4994616;28;20149;-60
2022/11/01 03:23:16;;;;;;;23.73;3.50;;;;;;;;;;5009876;28;20026;-60
2022/11/01 03:25:46;;;;;;;24.02;4.03;;;;;;;;;;5010771;28;20041;-60
2022/11/01 03:28:20;;;;;;;22.85;4.43;;;;;;;;;;5012831;28;20026;-60
2022/11/01 03:30:49;;;;;;;24.15;4.05;;;;;;;;;;5011661;28;20029;-60
2022/11/01 03:33:16;;;;;;;18.75;3.15;;;;;;;;;;5011931;28;20371;-60
2022/11/01 03:35:44;;;;;;;25.50;4.93;;;;;;;;;;5012627;28;20047;-60
2022/11/01 03:38:13;;;;;;;20.75;4.03;;;;;;;;;;5012796;28;20108;-60
2022/11/01 03:40:41;;;;;;;25.05;4.25;;;;;;;;;;5012652;28;20114;-60
2022/11/01 03:43:10;;;;;;;26.33;3.53;;;;;;;;;;5012895;28;20018;-60
2022/11/01 03:45:37;;;;;;;24.92;4.03;;;;;;;;;;5011433;28;20553;-60
2022/11/01 03:48:04;;;;;;;28.27;4.85;;;;;;;;;;5012861;28;20084;-60
2022/11/01 03:50:30;;;;;;;22.90;4.05;;;;;;;;;;5011666;28;20026;-60
2022/11/01 03:52:57;;;;;;;27.42;3.70;;;;;;;;;;5012732;28;20140;-60
2022/11/01 03:55:23;;;;;;;24.80;4.70;;;;;;;;;;5011921;28;20513;-60
2022/11/01 03:57:50;;;;;;;25.92;3.85;;;;;;;;;;5012941;28;20243;-60
2022/11/01 04:00:24;;;;;;;28.65;5.57;;;;;;;;;;5012465;28;20030;-60
2022/11/01 04:02:51;;;;;;;22.15;3.58;;;;;;;;;;5012607;28;20026;-60
2022/11/01 04:05:18;;;;;;;24.58;3.85;;;;;;;;;;5011705;28;20478;-60
2022/11/01 04:07:44;;;;;;;14.63;2.85;;;;;;;;;;5012583;28;20034;-60
2022/11/01 04:10:11;;;;;;;26.10;3.75;;;;;;;;;;5012430;28;20054;-60
2022/11/01 04:12:37;;;;;;;23.98;4.90;;;;;;;;;;5012330;28;20030;-60
2022/11/01 04:20:33;;;;;;;18.40;3.80;;;;;;;;;;5012553;28;20042;-60
2022/11/01 04:23:00;;;;;;;18.27;3.10;;;;;;;;;;5011947;28;20554;-60
2022/11/01 04:25:26;;;;;;;22.15;3.83;;;;;;;;;;5014874;28;20053;-60
2022/11/01 04:27:55;;;;;;;23.27;3.78;;;;;;;;;;5015802;28;20045;-60
2022/11/01 04:30:22;;;;;;;26.13;3.88;;;;;;;;;;5015415;28;20038;-60
2022/11/01 04:32:48;;;;;;;20.23;2.97;;;;;;;;;;5015697;28;20108;-60
2022/11/01 04:35:14;;;;;;;27.05;4.07;;;;;;;;;;5015976;28;20140;-60
2022/11/01 04:37:40;;;;;;;26.50;3.47;;;;;;;;;;5015360;28;20109;-60
2022/11/01 04:40:07;;;;;;;28.00;4.57;;;;;;;;;;5014837;28;20137;-60
2022/11/01 04:42:36;;;;;;;21.60;4.20;;;;;;;;;;5014775;28;20229;-60
2022/11/01 04:45:04;;;;;;;16.77;3.38;;;;;;;;;;5015041;28;20032;-60
2022/11/01 04:47:30;;;;;;;19.95;3.88;;;;;;;;;;5015777;28;20025;-60
2022/11/01 04:49:56;;;;;;;16.35;3.08;;;;;;;;;;5015542;28;20068;-60
2022/11/01 04:52:22;;;;;;;27.10;3.25;;;;;;;;;;5014743;28;20034;-60
2022/11/01 04:54:49;;;;;;;22.63;3.47;;;;;;;;;;5015261;28;20060;-60
2022/11/01 04:57:21;;;;;;;25.35;3.05;;;;;;;;;;5015586;28;20037;-60
2022/11/01 04:59:54;;;;;;;26.20;3.30;;;;;;;;;;5014513;28;20069;-60
2022/11/01 05:02:22;;;;;;;20.10;3.38;;;;;;;;;;5013061;28;20034;-60
2022/11/01 05:04:48;;;;;;;21.88;3.58;;;;;;;;;;5015127;28;20030;-60
2022/11/01 05:07:15;;;;;;;14.38;2.55;;;;;;;;;;5015320;28;20121;-60
2022/11/01 05:09:41;;;;;;;22.77;3.90;;;;;;;;;;5014885;28;20111;-60
2022/11/01 05:12:08;;;;;;;20.95;3.85;;;;;;;;;;5013893;28;20029;-60
2022/11/01 05:14:34;;;;;;;19.08;2.72;;;;;;;;;;5014670;28;20073;-60
2022/11/01 05:17:00;;;;;;;22.25;3.42;;;;;;;;;;5014818;28;20037;-60
2022/11/01 05:19:26;;;;;;;18.52;2.92;;;;;;;;;;5014060;28;20100;-60
2022/11/01 05:21:52;;;;;;;17.13;3.10;;;;;;;;;;5013626;28;20037;-60
2022/11/01 05:24:18;;;;;;;20.08;3.85;;;;;;;;;;5014358;28;20033;-60
2022/11/01 05:26:44;;;;;;;22.20;3.30;;;;;;;;;;5014855;28;20022;-60
2022/11/01 05:29:10;;;;;;;20.40;3.30;;;;;;;;;;5014261;28;20041;-60
2022/11/01 05:31:37;;;;;;;26.17;3.17;;;;;;;;;;5014269;28;20037;-60
2022/11/01 05:34:03;;;;;;;24.20;5.20;;;;;;;;;;5014762;28;20036;-60
2022/11/01 05:36:30;;;;;;;18.02;3.13;;;;;;;;;;5013428;28;20040;-60
2022/11/01 05:38:56;;;;;;;28.83;3.47;;;;;;;;;;5014121;28;20033;-60
2022/11/01 05:41:22;;;;;;;15.38;2.95;;;;;;;;;;5026162;28;20017;-60
2022/11/01 05:43:48;;;;;;;17.80;2.88;;;;;;;;;;5015805;28;20036;-60
2022/11/01 05:46:14;;;;;;;33.58;5.80;;;;;;;;;;5014374;28;20040;-60
2022/11/01 05:48:41;;;;;;;13.38;3.30;;;;;;;;;;5014291;28;20539;-60
2022/11/01 05:51:07;;;;;;;18.05;2.55;;;;;;;;;;5012809;28;20060;-60
2022/11/01 05:53:34;;;;;;;22.13;3.15;;;;;;;;;;5016684;28;20449;-60
2022/11/01 05:56:00;;;;;;;21.88;3.80;;;;;;;;;;4997781;28;20041;-60
2022/11/01 05:58:26;;;;;;;23.60;4.70;;;;;;;;;;4999414;28;20075;-60
2022/11/01 06:01:00;;;;;;;26.05;4.35;;;;;;;;;;5021066;28;20108;-60
2022/11/01 06:03:26;;;;;;;25.63;3.53;;;;;;;;;;5013617;28;20026;-60
2022/11/01 06:05:52;;;;;;;24.63;4.15;;;;;;;;;;5011534;28;20029;-60
2022/11/01 06:08:18;;;;;;;26.58;4.07;;;;;;;;;;5000113;28;20505;-60
2022/11/01 06:10:44;;;;;;;20.55;3.72;;;;;;;;;;5011690;28;20529;-60
2022/11/01 06:13:10;;;;;;;22.75;3.50;;;;;;;;;;5001323;28;20030;-60
2022/11/01 06:15:36;;;;;;;23.73;3.88;;;;;;;;;;5001663;28;20477;-60
2022/11/01 06:18:03;;;;;;;25.48;3.20;;;;;;;;;;5011464;28;21414;-60
2022/11/01 06:20:30;;;;;;;16.88;4.32;;;;;;;;;;5011983;28;20014;-60
2022/11/01 06:22:57;;;;;;;28.55;4.40;;;;;;;;;;5001583;28;20026;-60
2022/11/01 06:25:23;;;;;;;22.67;4.28;;;;;;;;;;5009104;28;20175;-60
2022/11/01 06:27:49;;;;;;;28.50;4.10;;;;;;;;;;5009310;28;20032;-60
2022/11/01 06:30:15;;;;;;;21.52;3.80;;;;;;;;;;5011994;28;20072;-60
2022/11/01 06:32:41;;;;;;;21.23;3.83;;;;;;;;;;5002842;28;20078;-60
2022/11/01 06:35:08;;;;;;;21.50;3.08;;;;;;;;;;5006302;28;20029;-60
2022/11/01 06:37:34;;;;;;;23.15;4.45;;;;;;;;;;5014005;28;20084;-60
2022/11/01 06:40:00;;;;;;;23.40;3.47;;;;;;;;;;5005574;28;20045;-60
2022/11/01 06:42:28;;;;;;;18.30;4.07;;;;;;;;;;5005528;28;20348;-60
2022/11/01 06:44:57;;;;;;;29.88;4.63;;;;;;;;;;5004072;28;20024;-61
2022/11/01 06:47:23;;;;;;;26.77;3.55;;;;;;;;;;5006150;28;20072;-60
2022/11/01 06:49:49;;;;;;;17.23;3.17;;;;;;;;;;5005119;28;20028;-60
2022/11/01 06:52:16;;;;;;;20.38;3.22;;;;;;;;;;5004951;28;20061;-60
2022/11/01 06:54:42;;;;;;;31.05;3.97;;;;;;;;;;5003662;28;20029;-60
2022/11/01 06:57:08;;;;;;;25.35;4.18;;;;;;;;;;5004878;28;20053;-60
2022/11/01 06:59:34;;;;;;;23.98;4.55;;;;;;;;;;5000893;28;20041;-60
2022/11/01 07:02:00;;;;;;;18.92;4.30;;;;;;;;;;5006883;28;20017;-60
2022/11/01 07:04:28;;;;;;;25.15;4.03;;;;;;;;;;5005808;28;20018;-60
2022/11/01 07:06:54;;;;;;;17.95;3.05;;;;;;;;;;5007568;28;20030;-60
2022/11/01 07:09:20;;;;;;;20.02;3.80;;;;;;;;;;5005377;28;20042;-60
2022/11/01 07:11:46;;;;;;;22.80;4.43;;;;;;;;;;5013540;28;20018;-60
2022/11/01 07:14:12;;;;;;;26.83;3.97;;;;;;;;;;5009940;28;20034;-60
2022/11/01 07:16:38;;;;;;;20.85;3.85;;;;;;;;;;5004657;28;20030;-60
2022/11/01 07:19:05;;;;;;;23.52;4.40;;;;;;;;;;5005460;28;20029;-60
2022/11/01 07:21:31;;;;;;;26.20;4.18;;;;;;;;;;5001778;28;20053;-60
2022/11/01 07:23:57;;;;;;;23.88;4.10;;;;;;;;;;5005756;28;20041;-60
2022/11/01 07:26:23;;;;;;;24.92;4.93;;;;;;;;;;5008330;28;20033;-60
2022/11/01 07:28:49;;;;;;;17.42;3.55;;;;;;;;;;5004645;28;20022;-60
2022/11/01 07:31:15;;;;;;;20.15;3.90;;;;;;;;;;5005258;28;20034;-60
2022/11/01 07:33:41;;;;;;;32.75;4.35;;;;;;;;;;5002112;28;20030;-60
2022/11/01 07:36:07;;;;;;;33.50;4.45;;;;;;;;;;5004397;28;20026;-60
2022/11/01 07:38:34;;;;;;;31.38;4.32;;;;;;;;;;5005257;28;20524;-60
2022/11/01 07:41:01;;;;;;;22.05;4.13;;;;;;;;;;5002089;28;20066;-60
2022/11/01 07:43:27;;;;;;;34.88;4.70;;;;;;;;;;5005644;28;20063;-60
2022/11/01 07:45:57;;;;;;;23.70;3.42;;;;;;;;;;5004859;28;20034;-60
2022/11/01 07:48:23;;;;;;;19.05;3.08;;;;;;;;;;5006377;28;20038;-60
2022/11/01 07:50:49;;;;;;;20.77;3.83;;;;;;;;;;5007382;28;20045;-60
2022/11/01 07:53:17;;;;;;;16.70;3.22;;;;;;;;;;5010278;28;20044;-60
2022/11/01 07:55:43;;;;;;;16.83;3.30;;;;;;;;;;5010014;28;20180;-60
2022/11/01 07:58:10;;;;;;;15.60;2.35;;;;;;;;;;5009161;28;20498;-60
2022/11/01 08:00:37;;;;;;;23.73;4.57;;;;;;;;;;5011566;28;20704;-60
2022/11/01 08:03:04;;;;;;;12.85;3.30;;;;;;;;;;5014460;28;20097;-60
2022/11/01 08:05:30;;;;;;;18.75;3.20;;;;;;;;;;5014720;28;20034;-60
2022/11/01 08:07:56;;;;;;;18.05;3.80;;;;;;;;;;5013228;28;20026;-60
2022/11/01 08:10:22;;;;;;;21.05;3.75;;;;;;;;;;5015244;28;20045;-60
2022/11/01 08:12:48;;;;;;;17.13;3.85;;;;;;;;;;5013185;28;20022;-60
2022/11/01 08:15:14;;;;;;;17.58;3.53;;;;;;;;;;5011259;28;20042;-60
2022/11/01 08:17:40;;;;;;;21.88;3.47;;;;;;;;;;5014188;28;20021;-60
2022/11/01 08:20:07;;;;;;;24.35;4.00;;;;;;;;;;5014060;28;20056;-60
2022/11/01 08:22:33;;;;;;;20.23;4.25;;;;;;;;;;5011981;28;20026;-61
2022/11/01 08:24:59;;;;;;;16.38;3.22;;;;;;;;;;5011541;28;20049;-60
2022/11/01 08:27:26;;;;;;;23.77;4.55;;;;;;;;;;5012349;28;20045;-60
2022/11/01 08:29:52;;;;;;;18.13;3.58;;;;;;;;;;5009104;28;20394;-60
2022/11/01 08:32:21;;;;;;;20.13;4.30;;;;;;;;;;5010472;28;20444;-60
2022/11/01 08:34:47;;;;;;;28.88;4.72;;;;;;;;;;5011712;28;20029;-60
2022/11/01 08:37:14;;;;;;;22.30;3.72;;;;;;;;;;5007416;28;20065;-60
2022/11/01 08:39:40;;;;;;;21.40;4.40;;;;;;;;;;5009476;28;20036;-61
2022/11/01 08:42:06;;;;;;;28.52;3.90;;;;;;;;;;5013532;28;20018;-60
2022/11/01 08:44:33;;;;;;;17.02;4.40;;;;;;;;;;5014486;28;20026;-60
2022/11/01 08:47:00;;;;;;;20.33;3.63;;;;;;;;;;5016440;28;20501;-61
2022/11/01 08:49:27;;;;;;;25.73;3.75;;;;;;;;;;5020336;28;20025;-60
2022/11/01 08:51:53;;;;;;;27.33;4.68;;;;;;;;;;5024400;28;20136;-60
2022/11/01 08:54:19;;;;;;;28.52;4.68;;;;;;;;;;5024046;28;20025;-60
2022/11/01 08:56:45;;;;;;;38.53;6.40;;;;;;;;;;5013679;28;20034;-60
2022/11/01 08:59:11;;;;;;;24.45;4.03;;;;;;;;;;5021816;28;20071;-60
2022/11/01 09:01:38;;;;;;;27.40;4.20;;;;;;;;;;5012430;28;20030;-67
2022/11/01 09:04:04;;;;;;;22.92;3.95;;;;;;;;;;5010059;28;20037;-60
2022/11/01 09:06:31;;;;;;;24.20;4.03;;;;;;;;;;5010059;28;20033;-60
2022/11/01 09:08:57;;;;;;;24.85;4.78;;;;;;;;;;5013607;28;20144;-61
2022/11/01 09:11:24;;;;;;;25.23;3.60;;;;;;;;;;5010844;28;20030;-60
2022/11/01 09:13:51;;;;;;;21.88;3.90;;;;;;;;;;5013419;28;20049;-60
2022/11/01 09:16:18;;;;;;;22.60;3.80;;;;;;;;;;5009771;28;20042;-60
2022/11/01 09:18:44;;;;;;;12.55;3.20;;;;;;;;;;5009174;28;20113;-61
2022/11/01 09:21:10;;;;;;;20.15;3.92;;;;;;;;;;5011781;28;20508;-60
2022/11/01 09:23:37;;;;;;;13.15;2.85;;;;;;;;;;5014672;28;20021;-61
2022/11/01 09:26:04;;;;;;;16.10;3.42;;;;;;;;;;5015091;28;20029;-60
2022/11/01 09:28:30;;;;;;;19.98;3.17;;;;;;;;;;5022323;28;20025;-61
2022/11/01 09:30:57;;;;;;;12.10;2.92;;;;;;;;;;5019737;28;20096;-61
2022/11/01 09:33:23;;;;;;;14.00;2.38;;;;;;;;;;5019151;28;20026;-60
2022/11/01 09:35:53;;;;;;;11.00;2.13;;;;;;;;;;5012233;28;20045;-61
2022/11/01 09:38:19;;;;;;;6.90;1.73;;;;;;;;;;5014236;28;20041;-61
2022/11/01 09:40:46;;;;;;;10.27;2.53;;;;;;;;;;5013677;28;20466;-60
2022/11/01 09:43:15;;;;;;;13.10;2.10;;;;;;;;;;5014043;28;20025;-61
2022/11/01 09:45:41;;;;;;;9.30;2.13;;;;;;;;;;5013876;28;20022;-61
2022/11/01 09:48:07;;;;;;;11.52;1.50;;;;;;;;;;5013910;28;20030;-61
2022/11/01 09:50:36;;;;;;;11.10;2.30;;;;;;;;;;5012527;28;20026;-61
2022/11/01 09:53:03;;;;;;;5.68;1.33;;;;;;;;;;5008616;28;20035;-60
2022/11/01 09:55:42;;;;;;;13.98;1.70;;;;;;;;;;5015365;28;20033;-61
2022/11/01 09:58:27;;;;;;;14.23;2.47;;;;;;;;;;5013551;28;20030;-61
2022/11/01 10:00:57;;;;;;;12.77;2.38;;;;;;;;;;5013111;28;20025;-60
2022/11/01 10:03:23;;;;;;;17.27;2.88;;;;;;;;;;5013278;28;20037;-60
2022/11/01 10:05:53;;;;;;;16.88;2.60;;;;;;;;;;5014720;28;20435;-61
2022/11/01 10:08:19;;;;;;;15.15;3.00;;;;;;;;;;5015232;28;20038;-60
2022/11/01 10:10:45;;;;;;;12.73;2.47;;;;;;;;;;5019973;28;20124;-60
2022/11/01 10:13:11;;;;;;;15.93;2.75;;;;;;;;;;5011563;28;20084;-61
2022/11/01 10:15:51;;;;;;;14.63;3.30;;;;;;;;;;5013036;28;20029;-61
2022/11/01 10:18:28;;;;;;;19.15;3.30;;;;;;;;;;5008083;28;20128;-60
2022/11/01 10:20:57;;;;;;;16.35;2.78;;;;;;;;;;5010116;28;20108;-60
2022/11/01 10:23:32;;;;;;;28.75;4.95;;;;;;;;;;5014519;28;20022;-60
2022/11/01 10:25:58;;;;;;;30.33;4.97;;;;;;;;;;5013592;28;20494;-61
2022/11/01 10:28:39;;;;;;;28.33;4.55;;;;;;;;;;5014571;28;20104;-61
2022/11/01 10:31:11;;;;;;;21.90;3.78;;;;;;;;;;5010678;28;20034;-61
2022/11/01 10:34:00;;;;;;;25.25;4.55;;;;;;;;;;5015814;28;20072;-61
2022/11/01 10:36:29;;;;;;;20.42;4.85;;;;;;;;;;5017546;28;20034;-61
2022/11/01 10:39:16;;;;;;;21.85;4.25;;;;;;;;;;5013167;28;20513;-60
2022/11/01 10:41:48;;;;;;;18.80;3.67;;;;;;;;;;5016689;28;20029;-61
2022/11/01 10:44:30;;;;;;;22.75;4.82;;;;;;;;;;5012968;28;20473;-61
2022/11/01 10:46:56;;;;;;;19.90;4.35;;;;;;;;;;5020458;28;20033;-60
2022/11/01 10:49:30;;;;;;;29.65;5.05;;;;;;;;;;5017500;28;20100;-61
2022/11/01 10:52:02;;;;;;;28.10;4.28;;;;;;;;;;5013720;28;20065;-61
2022/11/01 10:54:30;;;;;;;22.33;4.72;;;;;;;;;;5011174;28;20030;-61
2022/11/01 10:56:59;;;;;;;33.95;4.90;;;;;;;;;;5016110;28;20026;-61
2022/11/01 10:59:34;;;;;;;34.17;5.32;;;;;;;;;;5017717;28;20034;-61
2022/11/01 11:02:01;;;;;;;23.38;4.22;;;;;;;;;;5014618;28;20084;-61
2022/11/01 11:04:28;;;;;;;34.28;5.55;;;;;;;;;;5019134;28;20025;-61
2022/11/01 11:06:55;;;;;;;31.80;5.15;;;;;;;;;;5019692;28;20078;-61
2022/11/01 11:09:27;;;;;;;24.75;5.25;;;;;;;;;;5023451;28;20054;-61
2022/11/01 11:11:56;;;;;;;31.35;5.18;;;;;;;;;;5020252;28;20033;-61
2022/11/01 11:14:23;;;;;;;31.15;5.38;;;;;;;;;;5012134;28;20442;-61
2022/11/01 11:16:52;;;;;;;28.80;5.80;;;;;;;;;;5013731;28;20466;-61
2022/11/01 11:19:32;;;;;;;31.95;4.15;;;;;;;;;;5005273;28;20042;-61
2022/11/01 11:21:59;;;;;;;28.02;5.00;;;;;;;;;;5008515;28;20025;-61
2022/11/01 11:24:26;;;;;;;25.80;4.82;;;;;;;;;;5010945;28;20698;-61
2022/11/01 11:26:54;;;;;;;25.42;5.28;;;;;;;;;;5008962;28;20423;-61
2022/11/01 11:29:27;;;;;;;27.27;5.47;;;;;;;;;;5011366;28;20041;-61
2022/11/01 11:31:58;;;;;;;31.77;7.00;;;;;;;;;;5006626;28;20403;-61
2022/11/01 11:34:32;;;;;;;29.02;5.43;;;;;;;;;;5014339;28;20025;-61
2022/11/01 11:37:00;;;;;;;31.27;5.13;;;;;;;;;;5015311;28;20029;-61
2022/11/01 11:39:30;;;;;;;34.80;5.40;;;;;;;;;;5017064;28;20025;-61
2022/11/01 11:42:10;;;;;;;29.35;6.40;;;;;;;;;;5016733;28;20056;-61
2022/11/01 11:44:44;;;;;;;29.08;5.15;;;;;;;;;;5025999;28;20502;-60
2022/11/01 11:47:18;;;;;;;38.88;5.13;;;;;;;;;;5014459;28;20049;-61
2022/11/01 11:49:44;;;;;;;30.50;5.88;;;;;;;;;;5010665;28;20088;-61
2022/11/01 11:52:16;;;;;;;29.10;6.15;;;;;;;;;;5000641;28;20024;-61
2022/11/01 11:54:43;;;;;;;30.40;5.38;;;;;;;;;;5008900;28;20034;-61
2022/11/01 11:57:15;;;;;;;29.30;4.65;;;;;;;;;;5002464;28;20120;-61
2022/11/01 11:59:43;;;;;;;24.63;4.05;;;;;;;;;;5015665;28;20022;-61
2022/11/01 12:02:22;;;;;;;34.08;4.53;;;;;;;;;;5017612;28;20479;-60
2022/11/01 12:04:52;;;;;;;38.90;5.65;;;;;;;;;;5014949;28;20080;-61
2022/11/01 12:07:42;;;;;;;24.77;4.95;;;;;;;;;;5014849;28;20100;-60
2022/11/01 12:10:27;;;;;;;23.60;4.80;;;;;;;;;;5010754;28;20054;-61
2022/11/01 12:12:55;;;;;;;29.42;4.32;;;;;;;;;;5014140;28;20038;-61
2022/11/01 12:15:29;;;;;;;30.05;5.20;;;;;;;;;;5018820;28;20060;-61
2022/11/01 12:17:55;;;;;;;23.63;3.83;;;;;;;;;;5014554;28;20100;-60
2022/11/01 12:20:25;;;;;;;21.55;4.05;;;;;;;;;;5014620;28;20515;-61
2022/11/01 12:22:52;;;;;;;26.92;4.00;;;;;;;;;;5014049;28;20025;-60
2022/11/01 12:25:23;;;;;;;15.40;3.97;;;;;;;;;;5019598;28;20168;-60
2022/11/01 12:28:13;;;;;;;17.38;2.53;;;;;;;;;;5015540;28;20053;-60
2022/11/01 12:30:39;;;;;;;20.83;3.15;;;;;;;;;;5010765;28;20044;-60
2022/11/01 12:33:22;;;;;;;13.88;2.92;;;;;;;;;;5017508;28;20048;-61
2022/11/01 12:35:48;;;;;;;16.15;2.67;;;;;;;;;;5016318;28;20124;-60
2022/11/01 12:38:28;;;;;;;8.95;1.85;;;;;;;;;;5020891;28;20061;-61
2022/11/01 12:40:54;;;;;;;10.55;2.05;;;;;;;;;;5016548;28;20026;-61
2022/11/01 12:43:31;;;;;;;11.80;1.75;;;;;;;;;;5014318;28;20030;-60
2022/11/01 12:46:09;;;;;;;11.10;2.05;;;;;;;;;;5008104;28;20057;-61
2022/11/01 12:48:39;;;;;;;11.00;2.33;;;;;;;;;;5011932;28;20045;-61
2022/11/01 12:51:41;;;;;;;10.25;2.65;;;;;;;;;;5015259;28;20052;-61
2022/11/01 12:54:07;;;;;;;15.35;2.40;;;;;;;;;;5012422;28;20121;-61
2022/11/01 12:56:33;;;;;;;15.82;2.70;;;;;;;;;;5011566;28;20096;-61
2022/11/01 12:58:59;;;;;;;18.55;2.70;;;;;;;;;;5011942;28;20081;-61
2022/11/01 13:01:28;;;;;;;15.02;3.40;;;;;;;;;;5009601;28;20060;-61
2022/11/01 13:03:57;;;;;;;15.57;3.05;;;;;;;;;;5012162;28;20030;-61
2022/11/01 13:06:43;;;;;;;12.27;2.45;;;;;;;;;;5019908;28;20037;-61
2022/11/01 13:09:13;;;;;;;14.35;3.08;;;;;;;;;;5015953;28;20359;-61
2022/11/01 13:11:39;;;;;;;19.65;3.17;;;;;;;;;;5011839;28;20076;-61
2022/11/01 13:14:18;;;;;;;22.73;2.85;;;;;;;;;;5016399;28;20041;-61
2022/11/01 13:16:47;;;;;;;17.55;2.55;;;;;;;;;;5012549;28;20033;-61
2022/11/01 13:19:42;;;;;;;13.30;2.80;;;;;;;;;;5014005;28;20099;-61
2022/11/01 13:22:31;;;;;;;18.90;3.25;;;;;;;;;;5001436;28;20077;-61
2022/11/01 13:25:02;;;;;;;28.63;4.07;;;;;;;;;;5018658;28;20112;-61
2022/11/01 13:27:33;;;;;;;20.38;3.33;;;;;;;;;;5013679;28;20140;-61
2022/11/01 13:30:04;;;;;;;25.17;3.55;;;;;;;;;;5019953;28;20028;-61
2022/11/01 13:32:54;;;;;;;28.10;4.20;;;;;;;;;;5011016;28;20029;-61
2022/11/01 13:35:23;;;;;;;21.63;4.43;;;;;;;;;;5012641;28;20045;-61
2022/11/01 13:37:52;;;;;;;23.15;4.13;;;;;;;;;;5013043;28;20054;-61
2022/11/01 13:40:21;;;;;;;28.60;4.07;;;;;;;;;;5015910;28;20028;-61
2022/11/01 13:42:52;;;;;;;28.15;4.88;;;;;;;;;;5014739;28;20049;-61
2022/11/01 13:45:21;;;;;;;23.70;3.95;;;;;;;;;;5014827;28;20040;-61
2022/11/01 13:47:51;;;;;;;18.85;3.65;;;;;;;;;;5015340;28;20104;-61
2022/11/01 13:50:28;;;;;;;21.05;3.42;;;;;;;;;;5011874;28;20045;-62
2022/11/01 13:52:58;;;;;;;23.67;3.75;;;;;;;;;;5013968;28;20116;-61
2022/11/01 13:55:35;;;;;;;19.15;3.45;;;;;;;;;;5011483;28;20032;-61
2022/11/01 13:58:02;;;;;;;17.02;4.22;;;;;;;;;;5014352;28;20406;-61
2022/11/01 14:00:38;;;;;;;13.48;3.03;;;;;;;;;;5012432;28;20454;-61
2022/11/01 14:03:22;;;;;;;19.42;3.53;;;;;;;;;;5013235;28;20490;-61
2022/11/01 14:06:08;;;;;;;16.02;3.00;;;;;;;;;;5015992;28;20104;-61
2022/11/01 14:08:45;;;;;;;20.05;3.65;;;;;;;;;;5011630;28;20490;-61
2022/11/01 14:11:13;;;;;;;16.38;3.67;;;;;;;;;;5010581;28;20054;-61
2022/11/01 14:13:40;;;;;;;25.52;3.97;;;;;;;;;;5009632;28;20034;-61
2022/11/01 14:16:18;;;;;;;22.95;4.93;;;;;;;;;;5013154;28;20022;-62
2022/11/01 14:19:04;;;;;;;19.73;3.90;;;;;;;;;;5017501;28;20030;-61
2022/11/01 14:21:31;;;;;;;23.83;4.53;;;;;;;;;;5012155;28;20036;-61
2022/11/01 14:24:05;;;;;;;31.92;4.32;;;;;;;;;;5013999;28;20104;-61
2022/11/01 14:26:35;;;;;;;20.67;3.85;;;;;;;;;;5007942;28;20113;-62
2022/11/01 14:29:07;;;;;;;26.58;4.85;;;;;;;;;;5022728;28;20033;-61
2022/11/01 14:31:35;;;;;;;27.60;4.32;;;;;;;;;;5013783;28;20037;-62
2022/11/01 14:34:05;;;;;;;36.33;4.82;;;;;;;;;;5013347;28;20490;-61
2022/11/01 14:36:33;;;;;;;32.40;4.75;;;;;;;;;;5012196;28;20034;-61
2022/11/01 14:39:07;;;;;;;32.90;5.60;;;;;;;;;;5012242;28;20026;-61
2022/11/01 14:41:36;;;;;;;20.98;4.28;;;;;;;;;;5011626;28;20034;-62
2022/11/01 14:44:10;;;;;;;30.73;4.90;;;;;;;;;;5013039;28;20389;-61
2022/11/01 14:46:39;;;;;;;23.90;5.20;;;;;;;;;;5013325;28;20410;-61
2022/11/01 14:49:05;;;;;;;28.27;4.97;;;;;;;;;;5012439;28;20873;-61
2022/11/01 14:51:50;;;;;;;36.65;5.63;;;;;;;;;;5012310;28;20033;-61